sensor_id;sensor_type;location;lat;lon;timestamp;pressure;altitude;pressure_sealevel;temperature;humidity
29045;BME280;16133;49.486;12.176;2023-02-23T00:01:56;96926.25;;;3.91;100.00
29045;BME280;16133;49.486;12.176;2023-02-23T00:04:23;96920.47;;;3.87;100.00
29045;BME280;16133;49.486;12.176;2023-02-23T00:09:34;96920.69;;;3.76;100.00
29045;BME280;16133;49.486;12.176;2023-02-23T00:12:02;96916.69;;;3.72;100.00
29045;BME280;16133;49.486;12.176;2023-02-23T00:14:32;96927.66;;;3.67;100.00
29045;BME280;16133;49.486;12.176;2023-02-23T00:16:58;96922.69;;;3.64;100.00
29045;BME280;16133;49.486;12.176;2023-02-23T00:19:24;96919.72;;;3.59;100.00
29045;BME280;16133;49.486;12.176;2023-02-23T00:21:50;96915.72;;;3.55;100.00
29045;BME280;16133;49.486;12.176;2023-02-23T00:24:16;96917.13;;;3.50;100.00
29045;BME280;16133;49.486;12.176;2023-02-23T00:26:46;96915.78;;;3.46;100.00
29045;BME280;16133;49.486;12.176;2023-02-23T00:29:17;96917.03;;;3.42;100.00
29045;BME280;16133;49.486;12.176;2023-02-23T00:31:47;96912.09;;;3.38;100.00
29045;BME280;16133;49.486;12.176;2023-02-23T00:34:16;96908.81;;;3.36;100.00
29045;BME280;16133;49.486;12.176;2023-02-23T00:36:45;96903.69;;;3.35;100.00
29045;BME280;16133;49.486;12.176;2023-02-23T00:39:13;96902.22;;;3.32;100.00
29045;BME280;16133;49.486;12.176;2023-02-23T00:41:56;96905.78;;;3.31;100.00
29045;BME280;16133;49.486;12.176;2023-02-23T00:44:27;96909.69;;;3.27;100.00
29045;BME280;16133;49.486;12.176;2023-02-23T00:46:52;96913.56;;;3.23;100.00
29045;BME280;16133;49.486;12.176;2023-02-23T00:49:19;96913.88;;;3.20;100.00
29045;BME280;16133;49.486;12.176;2023-02-23T00:51:45;96917.44;;;3.19;100.00
29045;BME280;16133;49.486;12.176;2023-02-23T00:54:12;96915.13;;;3.16;100.00
29045;BME280;16133;49.486;12.176;2023-02-23T00:56:39;96913.63;;;3.14;100.00
29045;BME280;16133;49.486;12.176;2023-02-23T00:59:05;96908.22;;;3.15;100.00
29045;BME280;16133;49.486;12.176;2023-02-23T01:01:31;96914.28;;;3.16;100.00
29045;BME280;16133;49.486;12.176;2023-02-23T01:03:56;96907.94;;;3.18;100.00
29045;BME280;16133;49.486;12.176;2023-02-23T01:06:22;96901.41;;;3.22;100.00
29045;BME280;16133;49.486;12.176;2023-02-23T01:08:49;96903.06;;;3.23;100.00
29045;BME280;16133;49.486;12.176;2023-02-23T01:11:20;96906.53;;;3.24;100.00
29045;BME280;16133;49.486;12.176;2023-02-23T01:13:47;96907.66;;;3.21;100.00
29045;BME280;16133;49.486;12.176;2023-02-23T01:16:15;96910.72;;;3.17;100.00
29045;BME280;16133;49.486;12.176;2023-02-23T01:18:42;96910.72;;;3.17;100.00
29045;BME280;16133;49.486;12.176;2023-02-23T01:21:26;96910.84;;;3.15;100.00
29045;BME280;16133;49.486;12.176;2023-02-23T01:23:53;96904.63;;;3.16;100.00
29045;BME280;16133;49.486;12.176;2023-02-23T01:26:27;96907.94;;;3.18;100.00
29045;BME280;16133;49.486;12.176;2023-02-23T01:28:56;96906.28;;;3.17;100.00
29045;BME280;16133;49.486;12.176;2023-02-23T01:31:23;96910.84;;;3.15;100.00
29045;BME280;16133;49.486;12.176;2023-02-23T01:33:56;96910.19;;;3.13;100.00
29045;BME280;16133;49.486;12.176;2023-02-23T01:36:22;96907.84;;;3.10;100.00
29045;BME280;16133;49.486;12.176;2023-02-23T01:38:49;96916.16;;;3.06;100.00
29045;BME280;16133;49.486;12.176;2023-02-23T01:41:15;96917.41;;;3.02;100.00
29045;BME280;16133;49.486;12.176;2023-02-23T01:44:04;96913.25;;;2.99;100.00
29045;BME280;16133;49.486;12.176;2023-02-23T01:46:35;96909.97;;;2.97;100.00
29045;BME280;16133;49.486;12.176;2023-02-23T01:49:02;96912.88;;;2.94;100.00
29045;BME280;16133;49.486;12.176;2023-02-23T01:51:35;96909.88;;;2.89;100.00
29045;BME280;16133;49.486;12.176;2023-02-23T01:54:17;96912.78;;;2.86;100.00
29045;BME280;16133;49.486;12.176;2023-02-23T01:56:46;96908.09;;;2.80;100.00
29045;BME280;16133;49.486;12.176;2023-02-23T01:59:26;96911.56;;;2.80;100.00
29045;BME280;16133;49.486;12.176;2023-02-23T02:01:54;96911.72;;;2.79;100.00
29045;BME280;16133;49.486;12.176;2023-02-23T02:04:21;96904.16;;;2.76;100.00
29045;BME280;16133;49.486;12.176;2023-02-23T02:06:48;96898.63;;;2.79;100.00
29045;BME280;16133;49.486;12.176;2023-02-23T02:09:19;96906.31;;;2.80;100.00
29045;BME280;16133;49.486;12.176;2023-02-23T02:11:49;96897.78;;;2.78;100.00
29045;BME280;16133;49.486;12.176;2023-02-23T02:14:26;96894.34;;;2.78;100.00
29045;BME280;16133;49.486;12.176;2023-02-23T02:22:56;96894.47;;;2.76;100.00
29045;BME280;16133;49.486;12.176;2023-02-23T02:36:21;96877.69;;;2.69;100.00
29045;BME280;16133;49.486;12.176;2023-02-23T02:41:53;96881.25;;;2.68;100.00
29045;BME280;16133;49.486;12.176;2023-02-23T02:44:57;96871.91;;;2.66;100.00
29045;BME280;16133;49.486;12.176;2023-02-23T02:47:34;96879.09;;;2.64;100.00
29045;BME280;16133;49.486;12.176;2023-02-23T02:50:08;96878.41;;;2.62;100.00
29045;BME280;16133;49.486;12.176;2023-02-23T02:52:36;96878.56;;;2.60;100.00
29045;BME280;16133;49.486;12.176;2023-02-23T02:55:12;96882.13;;;2.59;100.00
29045;BME280;16133;49.486;12.176;2023-02-23T02:57:41;96878.03;;;2.57;100.00
29045;BME280;16133;49.486;12.176;2023-02-23T03:00:10;96880.63;;;2.57;100.00
29045;BME280;16133;49.486;12.176;2023-02-23T03:02:55;96883.25;;;2.57;100.00
29045;BME280;16133;49.486;12.176;2023-02-23T03:05:48;96883.25;;;2.57;100.00
29045;BME280;16133;49.486;12.176;2023-02-23T03:08:59;96878.03;;;2.57;100.00
29045;BME280;16133;49.486;12.176;2023-02-23T03:15:27;96883.25;;;2.57;100.00
29045;BME280;16133;49.486;12.176;2023-02-23T03:21:17;96876.38;;;2.56;100.00
29045;BME280;16133;49.486;12.176;2023-02-23T03:24:33;96882.28;;;2.58;100.00
29045;BME280;16133;49.486;12.176;2023-02-23T03:27:25;96872.34;;;2.61;100.00
29045;BME280;16133;49.486;12.176;2023-02-23T03:33:18;96871.59;;;2.69;100.00
29045;BME280;16133;49.486;12.176;2023-02-23T03:36:16;96863.50;;;2.72;100.00
29045;BME280;16133;49.486;12.176;2023-02-23T03:41:56;96854.63;;;2.73;100.00
29045;BME280;16133;49.486;12.176;2023-02-23T03:44:44;96859.88;;;2.73;100.00
29045;BME280;16133;49.486;12.176;2023-02-23T03:47:33;96867.59;;;2.74;100.00
29045;BME280;16133;49.486;12.176;2023-02-23T03:50:40;96873.66;;;2.75;100.00
29045;BME280;16133;49.486;12.176;2023-02-23T03:53:32;96871.06;;;2.75;100.00
29045;BME280;16133;49.486;12.176;2023-02-23T03:56:20;96866.78;;;2.74;100.00
29045;BME280;16133;49.486;12.176;2023-02-23T03:59:06;96860.72;;;2.73;100.00
29045;BME280;16133;49.486;12.176;2023-02-23T04:01:53;96865.50;;;2.78;100.00
29045;BME280;16133;49.486;12.176;2023-02-23T04:04:39;96870.47;;;2.81;100.00
29045;BME280;16133;49.486;12.176;2023-02-23T04:07:25;96874.44;;;2.85;100.00
29045;BME280;16133;49.486;12.176;2023-02-23T04:10:09;96852.53;;;2.86;100.00
29045;BME280;16133;49.486;12.176;2023-02-23T04:13:05;96852.47;;;2.96;100.00
29045;BME280;16133;49.486;12.176;2023-02-23T04:18:20;96853.47;;;3.12;100.00
29045;BME280;16133;49.486;12.176;2023-02-23T04:20:46;96844.75;;;3.21;100.00
29045;BME280;16133;49.486;12.176;2023-02-23T04:23:12;96842.22;;;3.29;100.00
29045;BME280;16133;49.486;12.176;2023-02-23T04:25:37;96836.22;;;3.37;100.00
29045;BME280;16133;49.486;12.176;2023-02-23T04:28:03;96840.72;;;3.45;100.00
29045;BME280;16133;49.486;12.176;2023-02-23T04:30:28;96833.06;;;3.51;100.00
29045;BME280;16133;49.486;12.176;2023-02-23T04:32:54;96830.00;;;3.56;100.00
29045;BME280;16133;49.486;12.176;2023-02-23T04:35:20;96829.56;;;3.60;100.00
29045;BME280;16133;49.486;12.176;2023-02-23T04:37:45;96822.34;;;3.62;100.00
29045;BME280;16133;49.486;12.176;2023-02-23T04:40:11;96835.31;;;3.64;100.00
29045;BME280;16133;49.486;12.176;2023-02-23T04:42:38;96841.22;;;3.66;100.00
29045;BME280;16133;49.486;12.176;2023-02-23T04:45:05;96835.69;;;3.69;100.00
29045;BME280;16133;49.486;12.176;2023-02-23T04:47:31;96844.38;;;3.69;100.00
29045;BME280;16133;49.486;12.176;2023-02-23T04:49:56;96845.06;;;3.71;100.00
29045;BME280;16133;49.486;12.176;2023-02-23T04:52:22;96835.69;;;3.69;100.00
29045;BME280;16133;49.486;12.176;2023-02-23T04:54:47;96842.97;;;3.75;100.00
29045;BME280;16133;49.486;12.176;2023-02-23T04:57:13;96849.69;;;3.77;100.00
29045;BME280;16133;49.486;12.176;2023-02-23T04:59:38;96848.56;;;3.80;100.00
29045;BME280;16133;49.486;12.176;2023-02-23T05:02:03;96850.22;;;3.81;100.00
29045;BME280;16133;49.486;12.176;2023-02-23T05:04:29;96853.53;;;3.83;100.00
29045;BME280;16133;49.486;12.176;2023-02-23T05:06:54;96859.44;;;3.85;100.00
29045;BME280;16133;49.486;12.176;2023-02-23T05:09:20;96861.91;;;3.87;100.00
29045;BME280;16133;49.486;12.176;2023-02-23T05:11:45;96861.91;;;3.87;100.00
29045;BME280;16133;49.486;12.176;2023-02-23T05:14:11;96867.81;;;3.89;100.00
29045;BME280;16133;49.486;12.176;2023-02-23T05:16:37;96871.28;;;3.89;100.00
29045;BME280;16133;49.486;12.176;2023-02-23T05:19:02;96871.94;;;3.91;100.00
29045;BME280;16133;49.486;12.176;2023-02-23T05:21:27;96866.69;;;3.91;100.00
29045;BME280;16133;49.486;12.176;2023-02-23T05:23:53;96870.00;;;3.93;100.00
29045;BME280;16133;49.486;12.176;2023-02-23T05:26:18;96868.03;;;3.95;100.00
29045;BME280;16133;49.486;12.176;2023-02-23T05:28:44;96871.50;;;3.96;100.00
29045;BME280;16133;49.486;12.176;2023-02-23T05:31:10;96871.34;;;3.97;100.00
29045;BME280;16133;49.486;12.176;2023-02-23T05:33:36;96883.50;;;3.98;100.00
29045;BME280;16133;49.486;12.176;2023-02-23T05:36:10;96880.72;;;4.00;100.00
29045;BME280;16133;49.486;12.176;2023-02-23T05:38:37;96886.78;;;4.00;100.00
29045;BME280;16133;49.486;12.176;2023-02-23T05:41:06;96894.53;;;4.02;100.00
29045;BME280;16133;49.486;12.176;2023-02-23T05:43:32;96897.16;;;4.02;100.00
29045;BME280;16133;49.486;12.176;2023-02-23T05:45:57;96891.22;;;4.00;100.00
29045;BME280;16133;49.486;12.176;2023-02-23T05:48:23;96906.13;;;3.99;100.00
29045;BME280;16133;49.486;12.176;2023-02-23T05:50:48;96909.06;;;3.96;100.00
29045;BME280;16133;49.486;12.176;2023-02-23T05:53:14;96921.22;;;3.97;100.00
29045;BME280;16133;49.486;12.176;2023-02-23T05:55:39;96914.19;;;3.98;100.00
29045;BME280;16133;49.486;12.176;2023-02-23T05:58:04;96921.22;;;3.97;100.00
29045;BME280;16133;49.486;12.176;2023-02-23T06:00:30;96918.59;;;3.97;100.00
29045;BME280;16133;49.486;12.176;2023-02-23T06:02:55;96924.81;;;3.96;100.00
29045;BME280;16133;49.486;12.176;2023-02-23T06:05:21;96923.31;;;3.94;100.00
29045;BME280;16133;49.486;12.176;2023-02-23T06:07:46;96934.13;;;3.91;100.00
29045;BME280;16133;49.486;12.176;2023-02-23T06:10:12;96936.22;;;3.87;100.00
29045;BME280;16133;49.486;12.176;2023-02-23T06:12:38;96939.13;;;3.84;100.00
29045;BME280;16133;49.486;12.176;2023-02-23T06:15:04;96940.41;;;3.80;100.00
29045;BME280;16133;49.486;12.176;2023-02-23T06:17:29;96945.66;;;3.80;100.00
29045;BME280;16133;49.486;12.176;2023-02-23T06:19:56;96933.66;;;3.77;100.00
29045;BME280;16133;49.486;12.176;2023-02-23T06:22:23;96941.53;;;3.77;100.00
29045;BME280;16133;49.486;12.176;2023-02-23T06:24:48;96944.81;;;3.79;100.00
29045;BME280;16133;49.486;12.176;2023-02-23T06:27:13;96945.50;;;3.81;100.00
29045;BME280;16133;49.486;12.176;2023-02-23T06:29:40;96949.63;;;3.84;100.00
29045;BME280;16133;49.486;12.176;2023-02-23T06:32:05;96946.72;;;3.87;100.00
29045;BME280;16133;49.486;12.176;2023-02-23T06:34:31;96948.88;;;3.92;100.00
29045;BME280;16133;49.486;12.176;2023-02-23T06:36:58;96944.16;;;3.95;100.00
29045;BME280;16133;49.486;12.176;2023-02-23T06:39:23;96947.31;;;3.99;100.00
29045;BME280;16133;49.486;12.176;2023-02-23T06:41:48;96949.66;;;4.02;100.00
29045;BME280;16133;49.486;12.176;2023-02-23T06:44:14;96956.25;;;4.06;100.00
29045;BME280;16133;49.486;12.176;2023-02-23T06:46:39;96962.16;;;4.08;100.00
29045;BME280;16133;49.486;12.176;2023-02-23T06:49:05;96963.50;;;4.12;100.00
29045;BME280;16133;49.486;12.176;2023-02-23T06:51:30;96959.63;;;4.16;100.00
29045;BME280;16133;49.486;12.176;2023-02-23T06:53:55;96955.56;;;4.21;100.00
29045;BME280;16133;49.486;12.176;2023-02-23T06:56:21;96973.34;;;4.27;100.00
29045;BME280;16133;49.486;12.176;2023-02-23T06:58:47;96975.50;;;4.32;100.00
29045;BME280;16133;49.486;12.176;2023-02-23T07:01:13;96976.69;;;4.38;100.00
29045;BME280;16133;49.486;12.176;2023-02-23T07:03:40;96977.72;;;4.45;100.00
29045;BME280;16133;49.486;12.176;2023-02-23T07:06:05;96978.78;;;4.52;100.00
29045;BME280;16133;49.486;12.176;2023-02-23T07:08:32;96986.88;;;4.58;100.00
29045;BME280;16133;49.486;12.176;2023-02-23T07:11:23;96986.13;;;4.66;100.00
29045;BME280;16133;49.486;12.176;2023-02-23T07:13:49;96990.75;;;4.72;100.00
29045;BME280;16133;49.486;12.176;2023-02-23T07:16:14;97004.13;;;4.78;100.00
29045;BME280;16133;49.486;12.176;2023-02-23T07:18:40;97000.03;;;4.84;100.00
29045;BME280;16133;49.486;12.176;2023-02-23T07:21:06;96995.81;;;4.91;100.00
29045;BME280;16133;49.486;12.176;2023-02-23T07:23:32;97010.66;;;5.00;100.00
29045;BME280;16133;49.486;12.176;2023-02-23T07:25:57;97013.50;;;5.07;100.00
29045;BME280;16133;49.486;12.176;2023-02-23T07:28:23;97018.66;;;5.16;100.00
29045;BME280;16133;49.486;12.176;2023-02-23T07:30:54;97013.44;;;5.24;100.00
29045;BME280;16133;49.486;12.176;2023-02-23T07:33:20;97022.03;;;5.35;100.00
29045;BME280;16133;49.486;12.176;2023-02-23T07:35:45;97020.78;;;5.47;100.00
29045;BME280;16133;49.486;12.176;2023-02-23T07:38:10;97033.66;;;5.58;100.00
29045;BME280;16133;49.486;12.176;2023-02-23T07:40:37;97038.78;;;5.67;100.00
29045;BME280;16133;49.486;12.176;2023-02-23T07:43:02;97041.19;;;5.78;100.00
29045;BME280;16133;49.486;12.176;2023-02-23T07:45:27;97044.66;;;5.87;100.00
29045;BME280;16133;49.486;12.176;2023-02-23T07:47:53;97045.69;;;5.94;100.00
29045;BME280;16133;49.486;12.176;2023-02-23T07:50:18;97056.09;;;6.04;100.00
29045;BME280;16133;49.486;12.176;2023-02-23T07:52:43;97059.59;;;6.12;100.00
29045;BME280;16133;49.486;12.176;2023-02-23T07:55:10;97064.88;;;6.20;100.00
29045;BME280;16133;49.486;12.176;2023-02-23T07:57:35;97066.53;;;6.30;100.00
29045;BME280;16133;49.486;12.176;2023-02-23T08:00:01;97072.16;;;6.43;100.00
29045;BME280;16133;49.486;12.176;2023-02-23T08:02:27;97072.50;;;6.56;100.00
29045;BME280;16133;49.486;12.176;2023-02-23T08:04:53;97070.22;;;6.69;100.00
29045;BME280;16133;49.486;12.176;2023-02-23T08:07:20;97086.22;;;6.84;100.00
29045;BME280;16133;49.486;12.176;2023-02-23T08:09:47;97081.94;;;6.99;100.00
29045;BME280;16133;49.486;12.176;2023-02-23T08:12:12;97086.38;;;7.14;100.00
29045;BME280;16133;49.486;12.176;2023-02-23T08:14:40;97091.81;;;7.29;100.00
29045;BME280;16133;49.486;12.176;2023-02-23T08:17:05;97094.41;;;7.45;100.00
29045;BME280;16133;49.486;12.176;2023-02-23T08:19:30;97101.50;;;7.61;100.00
29045;BME280;16133;49.486;12.176;2023-02-23T08:21:56;97098.16;;;7.75;100.00
29045;BME280;16133;49.486;12.176;2023-02-23T08:24:21;97104.72;;;7.87;100.00
29045;BME280;16133;49.486;12.176;2023-02-23T08:26:47;97103.34;;;7.99;100.00
29045;BME280;16133;49.486;12.176;2023-02-23T08:29:15;97109.91;;;8.11;100.00
29045;BME280;16133;49.486;12.176;2023-02-23T08:31:40;97106.06;;;8.22;100.00
29045;BME280;16133;49.486;12.176;2023-02-23T08:34:06;97112.00;;;8.32;100.00
29045;BME280;16133;49.486;12.176;2023-02-23T08:36:31;97101.22;;;8.42;100.00
29045;BME280;16133;49.486;12.176;2023-02-23T08:38:56;97104.28;;;8.53;100.00
29045;BME280;16133;49.486;12.176;2023-02-23T08:41:22;97097.78;;;8.64;100.00
29045;BME280;16133;49.486;12.176;2023-02-23T08:43:47;97107.94;;;8.75;100.00
29045;BME280;16133;49.486;12.176;2023-02-23T08:46:13;97108.56;;;8.85;100.00
29045;BME280;16133;49.486;12.176;2023-02-23T08:48:40;97108.78;;;8.98;100.00
29045;BME280;16133;49.486;12.176;2023-02-23T08:51:06;97107.72;;;9.07;100.00
29045;BME280;16133;49.486;12.176;2023-02-23T08:53:32;97103.16;;;9.16;100.00
29045;BME280;16133;49.486;12.176;2023-02-23T08:55:59;97106.56;;;9.25;100.00
29045;BME280;16133;49.486;12.176;2023-02-23T08:58:26;97111.19;;;9.31;100.00
29045;BME280;16133;49.486;12.176;2023-02-23T09:00:51;97107.44;;;9.40;100.00
29045;BME280;16133;49.486;12.176;2023-02-23T09:03:18;97106.19;;;9.50;100.00
29045;BME280;16133;49.486;12.176;2023-02-23T09:05:44;97107.94;;;9.58;100.00
29045;BME280;16133;49.486;12.176;2023-02-23T09:08:11;97110.97;;;9.70;100.00
29045;BME280;16133;49.486;12.176;2023-02-23T09:10:37;97106.84;;;9.82;100.00
29045;BME280;16133;49.486;12.176;2023-02-23T09:13:02;97103.56;;;9.94;100.00
29045;BME280;16133;49.486;12.176;2023-02-23T09:15:28;97104.94;;;10.05;100.00
29045;BME280;16133;49.486;12.176;2023-02-23T09:17:53;97107.22;;;10.08;100.00
29045;BME280;16133;49.486;12.176;2023-02-23T09:20:19;97104.00;;;10.13;100.00
29045;BME280;16133;49.486;12.176;2023-02-23T09:22:44;97102.94;;;10.22;100.00
29045;BME280;16133;49.486;12.176;2023-02-23T09:25:17;97114.28;;;10.30;100.00
29045;BME280;16133;49.486;12.176;2023-02-23T09:27:47;97116.19;;;10.36;100.00
29045;BME280;16133;49.486;12.176;2023-02-23T09:30:13;97116.72;;;10.46;100.00
29045;BME280;16133;49.486;12.176;2023-02-23T09:32:43;97116.59;;;10.54;100.00
29045;BME280;16133;49.486;12.176;2023-02-23T09:35:08;97121.34;;;10.59;100.00
29045;BME280;16133;49.486;12.176;2023-02-23T09:37:34;97102.88;;;10.51;100.00
29045;BME280;16133;49.486;12.176;2023-02-23T09:39:59;97123.00;;;10.60;100.00
29045;BME280;16133;49.486;12.176;2023-02-23T09:45:28;97128.59;;;10.65;100.00
29045;BME280;16133;49.486;12.176;2023-02-23T09:50:29;97122.13;;;10.53;100.00
29045;BME280;16133;49.486;12.176;2023-02-23T09:55:47;97124.88;;;10.45;100.00
29045;BME280;16133;49.486;12.176;2023-02-23T09:58:21;97125.78;;;10.52;100.00
29045;BME280;16133;49.486;12.176;2023-02-23T10:00:58;97122.00;;;10.61;100.00
29045;BME280;16133;49.486;12.176;2023-02-23T10:03:49;97118.88;;;10.72;100.00
29045;BME280;16133;49.486;12.176;2023-02-23T10:06:16;97123.41;;;10.78;100.00
29045;BME280;16133;49.486;12.176;2023-02-23T10:09:15;97120.75;;;10.78;100.00
29045;BME280;16133;49.486;12.176;2023-02-23T10:11:55;97119.56;;;10.81;100.00
29045;BME280;16133;49.486;12.176;2023-02-23T10:15:10;97114.88;;;10.83;100.00
29045;BME280;16133;49.486;12.176;2023-02-23T10:18:04;97120.03;;;10.84;100.00
29045;BME280;16133;49.486;12.176;2023-02-23T10:23:10;97117.38;;;10.84;100.00
29045;BME280;16133;49.486;12.176;2023-02-23T10:25:41;97115.72;;;10.83;100.00
29045;BME280;16133;49.486;12.176;2023-02-23T10:28:14;97120.03;;;10.84;100.00
29045;BME280;16133;49.486;12.176;2023-02-23T10:30:40;97117.38;;;10.84;100.00
29045;BME280;16133;49.486;12.176;2023-02-23T10:33:14;97115.06;;;10.81;100.00
29045;BME280;16133;49.486;12.176;2023-02-23T10:35:44;97116.44;;;10.77;100.00
29045;BME280;16133;49.486;12.176;2023-02-23T10:38:17;97100.28;;;10.72;100.00
29045;BME280;16133;49.486;12.176;2023-02-23T10:40:45;97107.09;;;10.81;100.00
29045;BME280;16133;49.486;12.176;2023-02-23T10:43:12;97114.78;;;10.91;100.00
29045;BME280;16133;49.486;12.176;2023-02-23T10:45:44;97119.63;;;11.09;100.00
29045;BME280;16133;49.486;12.176;2023-02-23T10:48:22;97115.94;;;11.31;100.00
29045;BME280;16133;49.486;12.176;2023-02-23T10:50:49;97116.94;;;11.51;100.00
29045;BME280;16133;49.486;12.176;2023-02-23T10:53:29;97114.91;;;11.74;98.73
29045;BME280;16133;49.486;12.176;2023-02-23T10:58:25;97114.59;;;12.25;96.17
29045;BME280;16133;49.486;12.176;2023-02-23T11:00:59;97116.38;;;12.59;94.28
29045;BME280;16133;49.486;12.176;2023-02-23T11:03:32;97111.38;;;12.90;89.42
29045;BME280;16133;49.486;12.176;2023-02-23T11:06:00;97110.63;;;13.16;88.18
29045;BME280;16133;49.486;12.176;2023-02-23T11:08:26;97106.34;;;13.48;87.58
29045;BME280;16133;49.486;12.176;2023-02-23T11:10:56;97113.72;;;13.78;85.69
29045;BME280;16133;49.486;12.176;2023-02-23T11:13:23;97105.50;;;13.93;82.67
29045;BME280;16133;49.486;12.176;2023-02-23T11:15:58;97102.78;;;14.13;81.89
29045;BME280;16133;49.486;12.176;2023-02-23T11:18:24;97109.13;;;14.18;80.30
29045;BME280;16133;49.486;12.176;2023-02-23T11:20:50;97104.38;;;14.27;79.19
29045;BME280;16133;49.486;12.176;2023-02-23T11:23:21;97104.59;;;14.25;79.02
29045;BME280;16133;49.486;12.176;2023-02-23T11:25:50;97095.16;;;14.29;79.46
29045;BME280;16133;49.486;12.176;2023-02-23T11:28:40;97097.22;;;14.14;77.53
29045;BME280;16133;49.486;12.176;2023-02-23T11:31:16;97096.44;;;14.01;77.04
29045;BME280;16133;49.486;12.176;2023-02-23T11:33:44;97100.19;;;13.86;77.59
29045;BME280;16133;49.486;12.176;2023-02-23T11:39:21;97092.78;;;13.88;78.44
29045;BME280;16133;49.486;12.176;2023-02-23T11:42:13;97093.16;;;14.05;79.07
29045;BME280;16133;49.486;12.176;2023-02-23T11:44:39;97084.47;;;14.29;78.35
29045;BME280;16133;49.486;12.176;2023-02-23T11:47:13;97087.28;;;14.54;78.43
29045;BME280;16133;49.486;12.176;2023-02-23T11:49:43;97083.50;;;14.75;76.88
29045;BME280;16133;49.486;12.176;2023-02-23T11:52:15;97088.53;;;14.90;75.87
29045;BME280;16133;49.486;12.176;2023-02-23T11:57:24;97082.50;;;15.01;73.47
29045;BME280;16133;49.486;12.176;2023-02-23T11:59:51;97086.63;;;14.97;74.27
29045;BME280;16133;49.486;12.176;2023-02-23T12:02:30;97081.28;;;14.97;74.15
29045;BME280;16133;49.486;12.176;2023-02-23T12:05:08;97080.16;;;14.79;73.63
29045;BME280;16133;49.486;12.176;2023-02-23T12:07:38;97074.00;;;14.79;72.95
29045;BME280;16133;49.486;12.176;2023-02-23T12:10:25;97071.50;;;14.84;74.19
29045;BME280;16133;49.486;12.176;2023-02-23T12:20:53;97070.22;;;15.24;71.89
29045;BME280;16133;49.486;12.176;2023-02-23T12:23:25;97072.50;;;15.21;71.75
29045;BME280;16133;49.486;12.176;2023-02-23T12:26:03;97077.41;;;15.24;72.23
29045;BME280;16133;49.486;12.176;2023-02-23T12:28:36;97076.13;;;15.33;71.59
29045;BME280;16133;49.486;12.176;2023-02-23T12:34:08;97073.13;;;15.48;70.30
29045;BME280;16133;49.486;12.176;2023-02-23T12:36:45;97068.41;;;15.50;69.40
29045;BME280;16133;49.486;12.176;2023-02-23T12:39:53;97065.25;;;15.59;69.25
29045;BME280;16133;49.486;12.176;2023-02-23T12:42:25;97058.09;;;15.71;70.00
29045;BME280;16133;49.486;12.176;2023-02-23T12:44:58;97060.66;;;15.85;68.98
29045;BME280;16133;49.486;12.176;2023-02-23T12:47:43;97047.59;;;15.95;68.17
29045;BME280;16133;49.486;12.176;2023-02-23T12:50:34;97045.53;;;15.97;68.80
29045;BME280;16133;49.486;12.176;2023-02-23T12:53:22;97048.34;;;16.02;68.93
29045;BME280;16133;49.486;12.176;2023-02-23T12:58:38;97045.22;;;16.23;67.60
29045;BME280;16133;49.486;12.176;2023-02-23T13:01:10;97038.97;;;16.29;66.58
29045;BME280;16133;49.486;12.176;2023-02-23T13:06:11;97032.00;;;16.28;66.59
29045;BME280;16133;49.486;12.176;2023-02-23T13:14:17;97029.84;;;16.00;64.98
29045;BME280;16133;49.486;12.176;2023-02-23T13:16:54;97015.09;;;15.91;66.00
29045;BME280;16133;49.486;12.176;2023-02-23T13:19:49;97017.78;;;15.73;66.85
29045;BME280;16133;49.486;12.176;2023-02-23T13:24:50;97021.38;;;15.11;70.01
29045;BME280;16133;49.486;12.176;2023-02-23T13:29:53;97019.13;;;14.45;72.54
29045;BME280;16133;49.486;12.176;2023-02-23T13:32:26;97014.75;;;14.13;74.25
29045;BME280;16133;49.486;12.176;2023-02-23T13:37:30;97006.25;;;13.71;74.94
29045;BME280;16133;49.486;12.176;2023-02-23T13:40:17;97021.47;;;13.51;76.31
29045;BME280;16133;49.486;12.176;2023-02-23T13:49:44;97012.22;;;13.01;78.64
29045;BME280;16133;49.486;12.176;2023-02-23T13:51:39;96999.94;;;13.00;79.37
29045;BME280;16133;49.486;12.176;2023-02-23T13:56:43;97015.50;;;12.83;81.67
29045;BME280;16133;49.486;12.176;2023-02-23T13:59:17;97016.09;;;12.72;81.96
29045;BME280;16133;49.486;12.176;2023-02-23T14:01:46;97013.41;;;12.53;84.13
29045;BME280;16133;49.486;12.176;2023-02-23T14:04:24;97015.03;;;12.54;84.29
29045;BME280;16133;49.486;12.176;2023-02-23T14:06:59;97011.56;;;12.53;84.63
29045;BME280;16133;49.486;12.176;2023-02-23T14:09:33;97016.06;;;12.59;85.39
29045;BME280;16133;49.486;12.176;2023-02-23T14:12:39;97008.69;;;12.61;86.31
29045;BME280;16133;49.486;12.176;2023-02-23T14:17:58;97005.41;;;12.53;85.29
29045;BME280;16133;49.486;12.176;2023-02-23T14:34:59;97007.00;;;12.34;86.43
29045;BME280;16133;49.486;12.176;2023-02-23T14:40:11;96995.13;;;12.30;87.68
29045;BME280;16133;49.486;12.176;2023-02-23T14:42:38;96996.16;;;12.29;87.53
29045;BME280;16133;49.486;12.176;2023-02-23T14:47:46;96998.16;;;12.27;88.52
29045;BME280;16133;49.486;12.176;2023-02-23T14:50:21;96997.97;;;12.22;89.17
29045;BME280;16133;49.486;12.176;2023-02-23T14:52:49;96997.75;;;12.17;89.18
29045;BME280;16133;49.486;12.176;2023-02-23T14:55:21;96999.16;;;12.13;90.23
29045;BME280;16133;49.486;12.176;2023-02-23T14:57:48;96999.97;;;12.07;90.05
29045;BME280;16133;49.486;12.176;2023-02-23T15:02:40;96992.97;;;11.99;91.59
29045;BME280;16133;49.486;12.176;2023-02-23T15:05:23;96994.16;;;11.96;91.54
29045;BME280;16133;49.486;12.176;2023-02-23T15:07:49;96991.09;;;11.93;91.43
29045;BME280;16133;49.486;12.176;2023-02-23T15:10:34;96996.63;;;11.91;91.90